createdAt,value
2019-02-04T00:00:41.324Z,11.07
2019-02-04T00:03:15.286Z,11.07
2019-02-04T00:05:43.920Z,11.07
2019-02-04T00:08:12.438Z,10.60
2019-02-04T00:10:41.289Z,11.90
2019-02-04T00:13:09.892Z,10.00
2019-02-04T00:15:38.759Z,12.37
2019-02-04T00:18:07.652Z,10.73
2019-02-04T00:20:36.227Z,11.40
2019-02-04T00:23:04.778Z,12.33
2019-02-04T00:25:33.517Z,12.37
2019-02-04T00:28:01.963Z,12.00
2019-02-04T00:30:30.673Z,12.53
2019-02-04T00:32:59.198Z,11.07
2019-02-04T00:35:27.631Z,11.87
2019-02-04T00:37:56.087Z,12.43
2019-02-04T00:40:26.463Z,10.43
2019-02-04T00:42:54.983Z,11.73
2019-02-04T00:45:23.420Z,11.43
2019-02-04T00:47:51.866Z,11.13
2019-02-04T00:50:21.452Z,11.43
2019-02-04T00:52:50.214Z,12.20
2019-02-04T00:55:19.170Z,9.83
2019-02-04T00:57:47.950Z,11.47
2019-02-04T01:00:26.922Z,11.90
2019-02-04T01:02:56.311Z,12.10
2019-02-04T01:05:25.168Z,13.87
2019-02-04T01:07:53.676Z,11.93
2019-02-04T01:10:25.117Z,13.07
2019-02-04T01:12:53.713Z,13.00
2019-02-04T01:15:22.307Z,13.63
2019-02-04T01:17:51.571Z,12.60
2019-02-04T01:20:22.942Z,13.40
2019-02-04T01:22:52.761Z,12.47
2019-02-04T01:25:21.715Z,12.97
2019-02-04T01:27:50.338Z,12.40
2019-02-04T01:30:21.307Z,12.83
2019-02-04T01:32:49.882Z,13.07
2019-02-04T01:35:18.401Z,14.30
2019-02-04T01:37:47.189Z,12.67
2019-02-04T01:40:25.874Z,12.90
2019-02-04T01:42:55.315Z,14.87
2019-02-04T01:45:24.955Z,14.13
2019-02-04T01:47:53.610Z,14.60
2019-02-04T01:50:23.279Z,15.10
2019-02-04T01:52:51.928Z,16.10
2019-02-04T01:55:20.446Z,14.67
2019-02-04T01:57:54.433Z,14.77
2019-02-04T02:00:31.195Z,14.37
2019-02-04T02:02:59.819Z,13.53
2019-02-04T02:05:28.387Z,14.83
2019-02-04T02:07:57.211Z,14.10
2019-02-04T02:10:26.788Z,13.87
2019-02-04T02:12:55.718Z,13.30
2019-02-04T02:15:24.570Z,13.43
2019-02-04T02:17:53.168Z,14.87
2019-02-04T02:20:24.491Z,13.53
2019-02-04T02:22:52.955Z,13.07
2019-02-04T02:25:21.479Z,13.43
2019-02-04T02:27:49.931Z,13.17
2019-02-04T02:30:26.892Z,12.17
2019-02-04T02:32:55.440Z,12.23
2019-02-04T02:35:24.314Z,12.27
2019-02-04T02:37:53.102Z,12.17
2019-02-04T02:40:30.240Z,11.53
2019-02-04T02:42:59.242Z,11.93
2019-02-04T02:45:27.826Z,12.60
2019-02-04T02:47:56.334Z,12.70
2019-02-04T02:50:25.278Z,12.27
2019-02-04T02:52:53.974Z,13.13
2019-02-04T02:55:22.672Z,12.60
2019-02-04T02:57:51.186Z,13.00
2019-02-04T03:00:27.243Z,12.07
2019-02-04T03:02:56.204Z,12.27
2019-02-04T03:05:24.791Z,13.10
2019-02-04T03:07:53.414Z,13.90
2019-02-04T03:10:24.477Z,14.03
2019-02-04T03:12:53.200Z,14.57
2019-02-04T03:15:21.783Z,14.17
2019-02-04T03:17:52.473Z,13.97
2019-02-04T03:20:21.199Z,14.70
2019-02-04T03:22:50.136Z,15.20
2019-02-04T03:25:18.946Z,15.53
2019-02-04T03:27:47.554Z,14.60
2019-02-04T03:30:25.066Z,14.40
2019-02-04T03:32:53.677Z,14.17
2019-02-04T03:35:22.248Z,14.07
2019-02-04T03:37:52.343Z,13.00
2019-02-04T03:40:26.494Z,12.30
2019-02-04T03:42:55.195Z,13.00
2019-02-04T03:45:23.990Z,13.57
2019-02-04T03:48:04.178Z,13.30
2019-02-04T03:50:23.162Z,13.10
2019-02-04T03:52:52.388Z,13.40
2019-02-04T03:55:21.107Z,13.57
2019-02-04T03:57:50.153Z,12.87
2019-02-04T04:00:23.799Z,13.47
2019-02-04T04:02:52.620Z,14.40
2019-02-04T04:05:21.550Z,13.37
2019-02-04T04:07:50.271Z,13.37
2019-02-04T04:10:19.043Z,14.77
2019-02-04T04:12:48.096Z,14.40
2019-02-04T04:15:17.969Z,15.27
2019-02-04T04:17:46.627Z,13.90
2019-02-04T04:20:17.382Z,14.37
2019-02-04T04:22:46.164Z,14.20
2019-02-04T04:25:16.645Z,13.50
2019-02-04T04:27:45.746Z,14.13
2019-02-04T04:30:17.359Z,14.13
2019-02-04T04:32:46.331Z,13.80
2019-02-04T04:35:15.819Z,13.40
2019-02-04T04:37:44.497Z,13.53
2019-02-04T04:40:14.832Z,13.60
2019-02-04T04:42:43.546Z,13.20
2019-02-04T04:45:15.696Z,13.90
2019-02-04T04:47:44.621Z,12.60
2019-02-04T04:50:13.549Z,14.00
2019-02-04T04:52:42.948Z,13.67
2019-02-04T04:55:17.923Z,13.43
2019-02-04T04:57:47.110Z,14.53
2019-02-04T05:00:30.282Z,13.83
2019-02-04T05:02:59.352Z,16.30
2019-02-04T05:05:28.246Z,14.00
2019-02-04T05:07:57.064Z,14.80
2019-02-04T05:10:25.803Z,14.50
2019-02-04T05:12:54.966Z,14.77
2019-02-04T05:15:26.086Z,14.40
2019-02-04T05:17:54.920Z,14.10
2019-02-04T05:20:23.876Z,14.40
2019-02-04T05:22:52.650Z,14.20
2019-02-04T05:25:21.416Z,14.77
2019-02-04T05:27:50.608Z,14.43
2019-02-04T05:30:24.073Z,14.27
2019-02-04T05:32:52.937Z,13.20
2019-02-04T05:35:21.693Z,15.10
2019-02-04T05:37:50.643Z,15.97
2019-02-04T05:40:19.757Z,14.70
2019-02-04T05:42:48.895Z,14.57
2019-02-04T05:45:19.553Z,14.23
2019-02-04T05:47:48.440Z,14.63
2019-02-04T05:50:19.152Z,14.97
2019-02-04T05:52:48.483Z,14.60
2019-02-04T05:55:19.232Z,14.83
2019-02-04T05:57:48.508Z,15.20
2019-02-04T06:00:26.851Z,13.57
2019-02-04T06:02:56.010Z,14.43
2019-02-04T06:05:25.195Z,14.03
2019-02-04T06:07:53.932Z,14.17
2019-02-04T06:10:22.723Z,13.00
2019-02-04T06:12:51.993Z,14.50
2019-02-04T06:15:21.203Z,14.10
2019-02-04T06:17:50.364Z,15.03
2019-02-04T06:20:21.445Z,13.50
2019-02-04T06:22:50.262Z,14.50
2019-02-04T06:25:19.088Z,15.00
2019-02-04T06:27:48.341Z,13.67
2019-02-04T06:30:18.409Z,13.87
2019-02-04T06:32:47.193Z,14.50
2019-02-04T06:35:19.179Z,14.10
2019-02-04T06:37:48.246Z,13.90
2019-02-04T06:40:17.641Z,15.30
2019-02-04T06:42:46.426Z,14.70
2019-02-04T06:45:17.409Z,15.80
2019-02-04T06:47:46.483Z,15.90
2019-02-04T06:50:19.729Z,14.23
2019-02-04T06:52:48.832Z,13.60
2019-02-04T06:55:19.717Z,13.50
2019-02-04T06:57:48.476Z,13.97
2019-02-04T07:00:18.831Z,13.70
2019-02-04T07:02:47.627Z,14.57
2019-02-04T07:05:17.926Z,14.43
2019-02-04T07:07:46.605Z,14.00
2019-02-04T07:10:20.946Z,14.20
2019-02-04T07:12:49.639Z,14.33
2019-02-04T07:15:18.430Z,13.20
2019-02-04T07:17:47.124Z,13.20
2019-02-04T07:20:18.842Z,13.83
2019-02-04T07:22:47.655Z,14.10
2019-02-04T07:25:17.846Z,12.67
2019-02-04T07:27:46.986Z,11.83
2019-02-04T07:30:26.421Z,13.50
2019-02-04T07:32:56.440Z,12.37
2019-02-04T07:35:25.362Z,12.10
2019-02-04T07:37:54.115Z,12.27
2019-02-04T07:40:31.222Z,12.60
2019-02-04T07:43:00.204Z,12.37
2019-02-04T07:45:29.147Z,12.50
2019-02-04T07:47:58.053Z,12.23
2019-02-04T07:50:27.291Z,11.47
2019-02-04T07:52:56.753Z,11.40
2019-02-04T07:55:25.660Z,11.83
2019-02-04T07:57:57.215Z,11.03
2019-02-04T08:00:28.061Z,11.40
2019-02-04T08:02:56.868Z,12.30
2019-02-04T08:05:26.000Z,11.53
2019-02-04T08:07:55.094Z,10.87
2019-02-04T08:10:23.985Z,10.50
2019-02-04T08:13:01.112Z,10.07
2019-02-04T08:15:35.143Z,11.47
2019-02-04T08:18:04.602Z,11.10
2019-02-04T08:20:33.384Z,11.13
2019-02-04T08:23:02.463Z,10.80
2019-02-04T08:25:31.265Z,11.77
2019-02-04T08:27:59.982Z,10.60
2019-02-04T08:30:30.737Z,11.40
2019-02-04T08:33:00.104Z,10.23
2019-02-04T08:35:30.219Z,10.97
2019-02-04T08:37:59.013Z,10.47
2019-02-04T08:40:27.801Z,10.63
2019-02-04T08:42:56.898Z,9.97
2019-02-04T08:45:26.065Z,9.80
2019-02-04T08:47:55.365Z,10.43
2019-02-04T08:50:26.263Z,9.40
2019-02-04T08:52:55.424Z,12.00
2019-02-04T08:55:24.138Z,10.30
2019-02-04T08:57:53.192Z,10.67
2019-02-04T09:00:24.262Z,9.87
2019-02-04T09:02:53.022Z,10.00
2019-02-04T09:05:23.340Z,9.53
2019-02-04T09:07:52.251Z,10.87
2019-02-04T09:10:26.668Z,10.33
2019-02-04T09:12:55.632Z,10.30
2019-02-04T09:15:24.505Z,10.90
2019-02-04T09:17:53.328Z,11.60
2019-02-04T09:20:22.215Z,11.37
2019-02-04T09:22:51.495Z,9.93
2019-02-04T09:25:25.021Z,9.90
2019-02-04T09:27:54.515Z,10.37
2019-02-04T09:30:26.152Z,9.60
2019-02-04T09:32:55.526Z,10.00
2019-02-04T09:35:24.280Z,9.50
2019-02-04T09:37:52.987Z,9.90
2019-02-04T09:40:30.271Z,10.40
2019-02-04T09:42:58.940Z,9.40
2019-02-04T09:45:28.118Z,10.70
2019-02-04T09:47:57.615Z,10.83
2019-02-04T09:50:32.521Z,9.60
2019-02-04T09:53:01.119Z,9.70
2019-02-04T09:55:32.660Z,9.23
2019-02-04T09:58:01.174Z,9.07
2019-02-04T10:00:32.155Z,9.73
2019-02-04T10:03:01.361Z,9.70
2019-02-04T10:05:30.283Z,9.57
2019-02-04T10:07:59.024Z,10.70
2019-02-04T10:10:29.462Z,9.57
2019-02-04T10:12:58.261Z,9.10
2019-02-04T10:15:29.887Z,8.30
2019-02-04T10:17:58.621Z,10.10
2019-02-04T10:20:34.205Z,10.40
2019-02-04T10:22:57.835Z,9.67
2019-02-04T10:25:38.464Z,8.83
2019-02-04T10:28:08.219Z,8.57
2019-02-04T10:30:37.599Z,8.30
2019-02-04T10:33:06.747Z,8.60
2019-02-04T10:35:35.627Z,8.70
2019-02-04T10:38:05.406Z,8.00
2019-02-04T10:40:34.343Z,9.10
2019-02-04T10:43:03.217Z,7.87
2019-02-04T10:45:32.136Z,8.90
2019-02-04T10:48:00.934Z,7.70
2019-02-04T10:50:31.587Z,8.13
2019-02-04T10:53:00.467Z,7.57
2019-02-04T10:55:29.641Z,8.17
2019-02-04T10:57:58.766Z,7.63
2019-02-04T11:00:35.440Z,8.17
2019-02-04T11:03:05.038Z,8.33
2019-02-04T11:05:36.647Z,8.90
2019-02-04T11:08:06.564Z,8.73
2019-02-04T11:10:38.318Z,8.50
2019-02-04T11:13:12.294Z,8.07
2019-02-04T11:15:41.945Z,7.97
2019-02-04T11:18:11.714Z,8.33
2019-02-04T11:20:40.832Z,7.70
2019-02-04T11:23:09.727Z,7.67
2019-02-04T11:25:38.856Z,8.10
2019-02-04T11:28:08.944Z,8.67
2019-02-04T11:30:40.631Z,8.00
2019-02-04T11:33:10.282Z,9.50
2019-02-04T11:35:39.207Z,9.10
2019-02-04T11:38:08.051Z,8.60
2019-02-04T11:40:41.364Z,7.80
2019-02-04T11:43:10.867Z,8.17
2019-02-04T11:45:40.218Z,8.33
2019-02-04T11:48:11.135Z,10.27
2019-02-04T11:50:40.054Z,8.17
2019-02-04T11:53:09.358Z,10.37
2019-02-04T11:55:38.159Z,9.80
2019-02-04T11:58:07.984Z,9.10
2019-02-04T12:00:37.787Z,8.50
2019-02-04T12:03:08.936Z,10.13
2019-02-04T12:05:37.698Z,7.60
2019-02-04T12:08:07.208Z,9.07
2019-02-04T12:10:39.291Z,8.67
2019-02-04T12:13:08.086Z,7.27
2019-02-04T12:15:36.812Z,7.97
2019-02-04T12:18:05.880Z,7.60
2019-02-04T12:20:34.672Z,7.03
2019-02-04T12:23:03.445Z,7.80
2019-02-04T12:25:32.580Z,7.27
2019-02-04T12:28:01.391Z,8.57
2019-02-04T12:30:35.086Z,6.90
2019-02-04T12:33:05.536Z,7.20
2019-02-04T12:35:34.733Z,7.37
2019-02-04T12:38:03.458Z,7.40
2019-02-04T12:40:32.636Z,6.30
2019-02-04T12:43:01.387Z,7.73
2019-02-04T12:45:33.237Z,6.90
2019-02-04T12:48:01.963Z,6.80
2019-02-04T12:50:31.063Z,6.43
2019-02-04T12:52:59.819Z,6.93
2019-02-04T12:55:33.238Z,6.63
2019-02-04T12:58:02.004Z,6.63
2019-02-04T13:00:31.926Z,6.83
2019-02-04T13:03:01.057Z,6.60
2019-02-04T13:05:39.168Z,6.20
2019-02-04T13:08:09.791Z,6.50
2019-02-04T13:10:38.989Z,6.50
2019-02-04T13:13:09.723Z,6.17
2019-02-04T13:15:38.739Z,6.80
2019-02-04T13:18:07.575Z,6.40
2019-02-04T13:20:36.484Z,6.53
2019-02-04T13:23:05.449Z,6.43
2019-02-04T13:25:34.231Z,6.77
2019-02-04T13:28:03.062Z,7.60
2019-02-04T13:30:32.566Z,6.57
2019-02-04T13:33:01.250Z,6.67
2019-02-04T13:35:30.961Z,7.87
2019-02-04T13:38:00.253Z,6.30
2019-02-04T13:40:30.189Z,6.90
2019-02-04T13:42:59.367Z,7.40
2019-02-04T13:45:28.518Z,7.40
2019-02-04T13:47:57.390Z,8.07
2019-02-04T13:50:26.692Z,8.70
2019-02-04T13:52:55.695Z,8.20
2019-02-04T13:55:27.599Z,8.13
2019-02-04T13:57:56.407Z,8.10
2019-02-04T14:00:27.075Z,8.63
2019-02-04T14:02:59.426Z,7.57
2019-02-04T14:05:27.634Z,6.60
2019-02-04T14:07:56.432Z,6.40
2019-02-04T14:10:30.447Z,6.80
2019-02-04T14:12:59.262Z,6.90
2019-02-04T14:15:28.430Z,7.00
2019-02-04T14:17:57.349Z,7.33
2019-02-04T14:20:27.344Z,6.50
2019-02-04T14:22:56.071Z,6.37
2019-02-04T14:25:25.193Z,6.90
2019-02-04T14:27:53.784Z,7.03
2019-02-04T14:30:28.267Z,6.73
2019-02-04T14:32:57.160Z,6.67
2019-02-04T14:35:26.496Z,6.43
2019-02-04T14:37:55.517Z,6.90
2019-02-04T14:40:24.804Z,7.47
2019-02-04T14:42:59.587Z,7.30
2019-02-04T14:45:35.943Z,6.83
2019-02-04T14:48:13.163Z,6.40
2019-02-04T14:51:00.332Z,7.27
2019-02-04T14:53:35.349Z,6.87
2019-02-04T14:56:25.090Z,6.77
2019-02-04T14:58:57.253Z,6.03
2019-02-04T15:01:31.701Z,5.73
2019-02-04T15:04:09.439Z,6.37
2019-02-04T15:07:14.524Z,5.77
2019-02-04T15:09:54.909Z,7.07
2019-02-04T15:12:38.421Z,5.73
2019-02-04T15:15:21.777Z,6.80
2019-02-04T15:18:05.179Z,7.30
2019-02-04T15:20:42.413Z,7.00
2019-02-04T15:23:25.260Z,5.80
2019-02-04T15:26:18.005Z,5.17
2019-02-04T15:28:53.011Z,5.40
2019-02-04T15:31:33.579Z,5.00
2019-02-04T15:34:11.105Z,5.13
2019-02-04T15:36:52.377Z,5.03
2019-02-04T15:39:30.083Z,4.70
2019-02-04T15:42:04.492Z,4.63
2019-02-04T15:44:48.563Z,5.00
2019-02-04T15:47:32.125Z,4.70
2019-02-04T15:50:33.942Z,4.60
2019-02-04T15:53:02.671Z,4.00
2019-02-04T15:55:31.566Z,4.23
2019-02-04T15:58:00.355Z,4.30
2019-02-04T16:00:29.558Z,4.70
2019-02-04T16:02:58.326Z,4.57
2019-02-04T16:05:27.099Z,4.70
2019-02-04T16:07:56.223Z,5.17
2019-02-04T16:10:24.932Z,4.57
2019-02-04T16:12:54.091Z,4.97
2019-02-04T16:15:23.411Z,5.57
2019-02-04T16:17:52.212Z,4.83
2019-02-04T16:20:23.154Z,4.40
2019-02-04T16:22:58.594Z,4.33
2019-02-04T16:25:22.303Z,4.90
2019-02-04T16:27:51.066Z,5.07
2019-02-04T16:30:21.746Z,5.07
2019-02-04T16:32:52.778Z,5.10
2019-02-04T16:35:20.811Z,5.30
2019-02-04T16:37:50.133Z,5.37
2019-02-04T16:40:21.466Z,6.40
2019-02-04T16:42:50.432Z,6.80
2019-02-04T16:45:24.189Z,9.70
2019-02-04T16:47:53.247Z,7.47
2019-02-04T16:50:24.106Z,5.57
2019-02-04T16:52:53.202Z,5.40
2019-02-04T16:55:22.146Z,5.07
2019-02-04T16:57:50.815Z,4.63
2019-02-04T17:00:27.825Z,4.97
2019-02-04T17:02:56.610Z,5.23
2019-02-04T17:05:26.689Z,4.00
2019-02-04T17:07:56.003Z,5.13
2019-02-04T17:10:26.676Z,5.20
2019-02-04T17:12:56.103Z,4.67
2019-02-04T17:15:25.892Z,4.80
2019-02-04T17:17:54.762Z,4.97
2019-02-04T17:20:26.709Z,4.73
2019-02-04T17:22:55.393Z,5.03
2019-02-04T17:25:24.302Z,4.80
2019-02-04T17:27:53.103Z,5.17
2019-02-04T17:30:24.159Z,5.10
2019-02-04T17:32:53.040Z,5.40
2019-02-04T17:35:21.769Z,7.40
2019-02-04T17:37:50.555Z,5.73
2019-02-04T17:40:23.913Z,5.00
2019-02-04T17:42:53.990Z,3.53
2019-02-04T17:45:22.785Z,3.97
2019-02-04T17:47:52.565Z,4.17
2019-02-04T17:50:22.565Z,3.73
2019-02-04T17:52:51.905Z,4.37
2019-02-04T17:55:25.942Z,4.87
2019-02-04T17:57:55.063Z,4.00
2019-02-04T18:00:26.572Z,4.87
2019-02-04T18:02:55.461Z,5.60
2019-02-04T18:05:24.687Z,4.83
2019-02-04T18:07:53.847Z,4.63
2019-02-04T18:10:22.639Z,4.80
2019-02-04T18:12:52.094Z,5.07
2019-02-04T18:15:22.918Z,4.47
2019-02-04T18:17:51.813Z,4.53
2019-02-04T18:20:20.580Z,3.83
2019-02-04T18:22:49.879Z,4.60
2019-02-04T18:25:23.143Z,4.10
2019-02-04T18:27:51.961Z,3.30
2019-02-04T18:30:22.490Z,3.50
2019-02-04T18:32:51.774Z,4.00
2019-02-04T18:35:20.726Z,3.77
2019-02-04T18:37:49.624Z,3.80
2019-02-04T18:40:20.052Z,2.90
2019-02-04T18:42:49.544Z,3.60
2019-02-04T18:45:31.723Z,4.00
2019-02-04T18:48:00.891Z,3.53
2019-02-04T18:50:30.906Z,2.90
2019-02-04T18:52:59.649Z,3.20
2019-02-04T18:55:31.264Z,4.27
2019-02-04T18:58:00.152Z,5.53
2019-02-04T19:00:33.058Z,6.20
2019-02-04T19:03:03.662Z,3.60
2019-02-04T19:05:32.543Z,3.90
2019-02-04T19:08:01.377Z,4.10
2019-02-04T19:10:30.957Z,4.60
2019-02-04T19:12:59.720Z,3.60
2019-02-04T19:15:29.890Z,3.80
2019-02-04T19:18:02.226Z,3.47
2019-02-04T19:20:31.154Z,3.63
2019-02-04T19:22:59.873Z,3.90
2019-02-04T19:25:29.097Z,3.47
2019-02-04T19:27:58.336Z,3.30
2019-02-04T19:30:48.095Z,3.83
2019-02-04T19:33:17.351Z,3.40
2019-02-04T19:35:46.216Z,3.27
2019-02-04T19:38:15.001Z,3.13
2019-02-04T19:40:44.015Z,3.53
2019-02-04T19:43:13.102Z,2.90
2019-02-04T19:45:41.907Z,3.57
2019-02-04T19:48:10.896Z,3.27
2019-02-04T19:50:39.638Z,3.60
2019-02-04T19:53:08.831Z,3.73
2019-02-04T19:55:37.992Z,3.33
2019-02-04T19:58:07.567Z,3.67
2019-02-04T20:00:36.493Z,3.50
2019-02-04T20:03:06.625Z,3.83
2019-02-04T20:05:35.475Z,3.60
2019-02-04T20:08:04.649Z,4.00
2019-02-04T20:10:34.811Z,3.83
2019-02-04T20:13:04.543Z,4.53
2019-02-04T20:15:33.780Z,4.30
2019-02-04T20:18:02.614Z,4.13
2019-02-04T20:20:31.457Z,4.30
2019-02-04T20:23:00.545Z,3.60
2019-02-04T20:25:31.383Z,3.90
2019-02-04T20:28:00.420Z,3.80
2019-02-04T20:30:46.054Z,4.27
2019-02-04T20:33:13.701Z,3.87
2019-02-04T20:35:42.938Z,4.53
2019-02-04T20:38:12.399Z,4.57
2019-02-04T20:40:41.321Z,6.23
2019-02-04T20:43:10.288Z,5.70
2019-02-04T20:45:42.158Z,4.20
2019-02-04T20:48:13.106Z,4.30
2019-02-04T20:50:47.694Z,4.60
2019-02-04T20:53:16.543Z,4.80
2019-02-04T20:55:48.363Z,4.30
2019-02-04T20:58:17.814Z,3.40
2019-02-04T21:00:46.487Z,4.37
2019-02-04T21:03:15.355Z,3.90
2019-02-04T21:05:44.127Z,4.00
2019-02-04T21:08:13.480Z,4.50
2019-02-04T21:10:42.346Z,4.47
2019-02-04T21:13:11.117Z,3.97
2019-02-04T21:15:40.001Z,4.00
2019-02-04T21:18:08.854Z,4.10
2019-02-04T21:20:37.691Z,4.10
2019-02-04T21:23:06.680Z,4.17
2019-02-04T21:25:36.276Z,4.03
2019-02-04T21:28:08.604Z,3.40
2019-02-04T21:30:39.946Z,4.63
2019-02-04T21:33:08.803Z,4.07
2019-02-04T21:35:39.418Z,4.30
2019-02-04T21:38:09.002Z,4.17
2019-02-04T21:40:37.759Z,3.53
2019-02-04T21:43:08.264Z,3.27
2019-02-04T21:45:39.870Z,3.90
2019-02-04T21:48:09.251Z,3.60
2019-02-04T21:50:38.011Z,3.23
2019-02-04T21:53:08.919Z,3.60
2019-02-04T21:55:39.279Z,3.73
2019-02-04T21:58:08.189Z,4.33
2019-02-04T22:00:38.741Z,4.10
2019-02-04T22:03:08.083Z,4.50
2019-02-04T22:05:36.912Z,4.30
2019-02-04T22:08:06.228Z,4.33
2019-02-04T22:10:35.067Z,3.80
2019-02-04T22:13:07.454Z,4.37
2019-02-04T22:15:36.207Z,4.47
2019-02-04T22:18:07.075Z,4.20
2019-02-04T22:20:36.361Z,4.40
2019-02-04T22:23:05.251Z,3.97
2019-02-04T22:25:34.259Z,3.93
2019-02-04T22:28:03.507Z,3.93
2019-02-04T22:30:32.715Z,4.27
2019-02-04T22:33:01.584Z,4.50
2019-02-04T22:35:30.426Z,4.20
2019-02-04T22:37:59.679Z,4.60
2019-02-04T22:40:29.951Z,4.27
2019-02-04T22:42:59.346Z,4.60
2019-02-04T22:45:28.184Z,5.07
2019-02-04T22:47:57.482Z,4.80
2019-02-04T22:50:30.613Z,4.70
2019-02-04T22:53:02.129Z,4.80
2019-02-04T22:55:32.331Z,4.83
2019-02-04T22:58:01.097Z,4.47
2019-02-04T23:00:49.161Z,4.30
2019-02-04T23:03:20.583Z,5.07
2019-02-04T23:05:49.513Z,4.40
2019-02-04T23:08:18.514Z,4.93
2019-02-04T23:10:47.376Z,5.47
2019-02-04T23:13:16.173Z,5.00
2019-02-04T23:15:45.326Z,4.83
2019-02-04T23:18:14.900Z,5.97
2019-02-04T23:20:43.896Z,4.50
2019-02-04T23:23:13.144Z,4.90
2019-02-04T23:25:43.761Z,4.90
2019-02-04T23:28:12.822Z,3.90
2019-02-04T23:30:41.527Z,4.67
2019-02-04T23:33:10.226Z,4.97
2019-02-04T23:35:39.364Z,4.53
2019-02-04T23:38:08.146Z,4.60
2019-02-04T23:40:36.852Z,4.60
2019-02-04T23:43:05.862Z,4.53
2019-02-04T23:45:34.550Z,4.37
2019-02-04T23:48:03.607Z,4.57
2019-02-04T23:50:32.395Z,4.50
2019-02-04T23:53:01.081Z,4.00
2019-02-04T23:55:29.868Z,4.37
2019-02-04T23:57:58.947Z,4.33
